Terminal Aerodrome Forecast
Issued by NWS

Home | Current Version | Previous Version | Graphics & Text | Print | Product List | Glossary On
Versions: 1 2 3 4 5 6 7 8 9 10 11 12 13 14 15 16
000
FTUS43 KBIS 251612 AAA
TAFDIK
TAF AMD
KDIK 251612Z 2516/2612 02013KT P6SM OVC005
     FM251800 03013KT P6SM OVC008
     FM260100 02011KT P6SM OVC020=

USA.gov is the U.S. government's official web portal to all federal, state and local government web resources and services.